createdAt,value
2022-12-03T00:06:11.262Z,2.51
2022-12-03T00:21:00.750Z,2.54
2022-12-03T00:24:32.949Z,2.54
2022-12-03T00:35:39.602Z,2.55
2022-12-03T00:43:51.441Z,2.49
2022-12-03T00:46:19.709Z,2.51
2022-12-03T00:48:44.288Z,2.55
2022-12-03T00:51:09.433Z,2.58
2022-12-03T00:53:31.827Z,2.56
2022-12-03T00:56:56.898Z,2.61
2022-12-03T00:59:19.769Z,2.59
2022-12-03T01:01:47.557Z,2.60
2022-12-03T01:04:11.635Z,2.60
2022-12-03T01:06:35.330Z,2.61
2022-12-03T01:08:58.185Z,2.56
2022-12-03T01:11:34.986Z,2.59
2022-12-03T01:15:44.334Z,2.60
2022-12-03T01:18:06.831Z,2.59
2022-12-03T01:20:29.223Z,2.61
2022-12-03T01:27:48.592Z,2.60
2022-12-03T01:30:15.214Z,2.61
2022-12-03T01:36:03.649Z,2.57
2022-12-03T01:38:26.498Z,2.60
2022-12-03T01:40:51.175Z,2.61
2022-12-03T01:43:13.712Z,2.63
2022-12-03T01:45:36.626Z,2.67
2022-12-03T01:47:59.550Z,2.65
2022-12-03T01:50:41.520Z,2.65
2022-12-03T01:53:06.578Z,2.65
2022-12-03T01:55:30.025Z,2.69
2022-12-03T01:58:00.194Z,2.71
2022-12-03T02:00:27.615Z,2.70
2022-12-03T02:02:58.302Z,2.68
2022-12-03T02:05:28.161Z,2.65
2022-12-03T02:07:50.990Z,2.67
2022-12-03T02:10:18.227Z,2.67
2022-12-03T02:12:59.865Z,2.71
2022-12-03T02:18:49.654Z,2.67
2022-12-03T02:21:54.300Z,2.70
2022-12-03T02:24:52.286Z,2.70
2022-12-03T02:27:14.934Z,2.68
2022-12-03T02:34:55.744Z,2.64
2022-12-03T02:37:34.921Z,2.66
2022-12-03T02:40:03.208Z,2.70
2022-12-03T02:42:35.536Z,2.72
2022-12-03T02:45:05.770Z,2.75
2022-12-03T02:47:31.423Z,2.74
2022-12-03T02:49:56.095Z,2.75
2022-12-03T02:52:19.126Z,2.76
2022-12-03T02:54:42.046Z,2.80
2022-12-03T02:57:05.028Z,2.83
2022-12-03T02:59:27.953Z,2.85
2022-12-03T03:01:50.532Z,2.85
2022-12-03T03:04:13.030Z,2.87
2022-12-03T03:06:35.597Z,2.89
2022-12-03T03:08:58.467Z,2.89
2022-12-03T03:11:24.535Z,2.86
2022-12-03T03:13:48.348Z,2.84
2022-12-03T03:16:11.118Z,2.83
2022-12-03T03:18:35.121Z,2.85
2022-12-03T03:20:57.532Z,2.83
2022-12-03T03:23:24.163Z,2.85
2022-12-03T03:25:57.761Z,2.86
2022-12-03T03:28:20.536Z,2.84
2022-12-03T03:30:44.765Z,2.84
2022-12-03T03:33:08.157Z,2.82
2022-12-03T03:35:31.072Z,2.83
2022-12-03T03:37:57.142Z,2.83
2022-12-03T03:40:21.475Z,2.83
2022-12-03T03:42:43.983Z,2.83
2022-12-03T03:45:09.751Z,2.84
2022-12-03T03:47:32.771Z,2.84
2022-12-03T03:49:55.966Z,2.83
2022-12-03T03:52:20.233Z,2.85
2022-12-03T03:54:42.936Z,2.82
2022-12-03T03:57:06.073Z,2.81
2022-12-03T03:59:30.161Z,2.85
2022-12-03T04:01:53.065Z,2.86
2022-12-03T04:04:22.135Z,2.84
2022-12-03T04:06:45.422Z,2.81
2022-12-03T04:09:08.064Z,2.80
2022-12-03T04:11:50.383Z,2.82
2022-12-03T04:14:12.669Z,2.81
2022-12-03T04:16:35.056Z,2.78
2022-12-03T04:18:57.789Z,2.77
2022-12-03T04:21:45.570Z,2.78
2022-12-03T04:24:12.327Z,2.73
2022-12-03T04:26:54.823Z,2.74
2022-12-03T04:29:17.781Z,2.74
2022-12-03T04:32:00.099Z,2.75
2022-12-03T04:34:42.028Z,2.74
2022-12-03T04:37:05.499Z,2.74
2022-12-03T04:39:43.467Z,2.74
2022-12-03T04:42:06.651Z,2.70
2022-12-03T04:44:38.505Z,2.69
2022-12-03T04:47:22.776Z,2.69
2022-12-03T04:49:50.700Z,2.70
2022-12-03T04:52:16.242Z,2.73
2022-12-03T04:54:42.330Z,2.72
2022-12-03T04:57:37.499Z,2.75
2022-12-03T05:00:00.030Z,2.74
2022-12-03T05:02:24.352Z,2.71
2022-12-03T05:04:47.016Z,2.70
2022-12-03T05:07:21.406Z,2.71
2022-12-03T15:05:16.671Z,2.63
2022-12-03T16:24:20.692Z,1.86
2022-12-03T16:30:34.981Z,1.84
